sensor_id;sensor_type;location;lat;lon;timestamp;pressure;altitude;pressure_sealevel;temperature;humidity
25759;BME280;13604;52.496;13.456;2023-03-20T00:00:36;101169.25;;;10.41;91.89
25759;BME280;13604;52.496;13.456;2023-03-20T00:03:02;101168.28;;;10.39;91.81
25759;BME280;13604;52.496;13.456;2023-03-20T00:05:28;101159.63;;;10.23;92.11
25759;BME280;13604;52.496;13.456;2023-03-20T00:07:55;101125.22;;;9.96;93.36
25759;BME280;13604;52.496;13.456;2023-03-20T00:10:24;101177.88;;;10.23;92.70
25759;BME280;13604;52.496;13.456;2023-03-20T00:12:50;101180.94;;;10.16;92.99
25759;BME280;13604;52.496;13.456;2023-03-20T00:15:23;101171.59;;;10.03;93.49
25759;BME280;13604;52.496;13.456;2023-03-20T00:17:49;101167.69;;;9.95;93.85
25759;BME280;13604;52.496;13.456;2023-03-20T00:20:15;101178.88;;;9.94;94.85
25759;BME280;13604;52.496;13.456;2023-03-20T00:22:41;101165.97;;;9.95;96.25
25759;BME280;13604;52.496;13.456;2023-03-20T00:25:11;101154.88;;;9.83;98.26
25759;BME280;13604;52.496;13.456;2023-03-20T00:27:37;101173.50;;;9.91;97.75
25759;BME280;13604;52.496;13.456;2023-03-20T00:30:04;101178.53;;;9.88;96.46
25759;BME280;13604;52.496;13.456;2023-03-20T00:32:29;101174.00;;;9.84;97.03
25759;BME280;13604;52.496;13.456;2023-03-20T00:34:55;101171.84;;;9.76;96.67
25759;BME280;13604;52.496;13.456;2023-03-20T00:37:20;101164.78;;;9.74;96.94
25759;BME280;13604;52.496;13.456;2023-03-20T00:39:45;101155.59;;;9.64;96.87
25759;BME280;13604;52.496;13.456;2023-03-20T00:42:20;101165.72;;;9.60;97.26
25759;BME280;13604;52.496;13.456;2023-03-20T00:44:53;101150.88;;;9.42;97.29
25759;BME280;13604;52.496;13.456;2023-03-20T00:47:23;101157.78;;;9.42;97.65
25759;BME280;13604;52.496;13.456;2023-03-20T00:49:50;101145.19;;;9.33;98.06
25759;BME280;13604;52.496;13.456;2023-03-20T00:52:17;101161.31;;;9.27;98.26
25759;BME280;13604;52.496;13.456;2023-03-20T00:54:43;101160.97;;;9.21;98.83
25759;BME280;13604;52.496;13.456;2023-03-20T00:57:13;101155.31;;;9.13;98.56
25759;BME280;13604;52.496;13.456;2023-03-20T00:59:58;101138.13;;;9.00;98.83
25759;BME280;13604;52.496;13.456;2023-03-20T01:02:27;101159.88;;;9.02;99.59
25759;BME280;13604;52.496;13.456;2023-03-20T01:04:53;101134.75;;;8.87;99.71
25759;BME280;13604;52.496;13.456;2023-03-20T01:07:18;101145.28;;;8.90;99.95
25759;BME280;13604;52.496;13.456;2023-03-20T01:09:43;101159.09;;;8.89;100.00
25759;BME280;13604;52.496;13.456;2023-03-20T01:12:13;101158.03;;;8.85;100.00
25759;BME280;13604;52.496;13.456;2023-03-20T01:14:39;101132.38;;;8.61;100.00
25759;BME280;13604;52.496;13.456;2023-03-20T01:17:04;101159.53;;;8.81;100.00
25759;BME280;13604;52.496;13.456;2023-03-20T01:19:30;101160.78;;;8.73;100.00
25759;BME280;13604;52.496;13.456;2023-03-20T01:21:55;101155.66;;;8.75;100.00
25759;BME280;13604;52.496;13.456;2023-03-20T01:24:20;101156.78;;;8.78;100.00
25759;BME280;13604;52.496;13.456;2023-03-20T01:26:46;101156.94;;;8.81;100.00
25759;BME280;13604;52.496;13.456;2023-03-20T01:29:25;101151.69;;;8.80;100.00
25759;BME280;13604;52.496;13.456;2023-03-20T01:31:54;101168.50;;;8.87;100.00
25759;BME280;13604;52.496;13.456;2023-03-20T01:34:21;101147.19;;;8.77;100.00
25759;BME280;13604;52.496;13.456;2023-03-20T01:36:52;101150.84;;;8.81;100.00
25759;BME280;13604;52.496;13.456;2023-03-20T01:39:19;101154.28;;;8.80;100.00
25759;BME280;13604;52.496;13.456;2023-03-20T01:41:46;101167.97;;;8.92;100.00
25759;BME280;13604;52.496;13.456;2023-03-20T01:44:21;101174.03;;;8.93;100.00
25759;BME280;13604;52.496;13.456;2023-03-20T01:46:48;101154.78;;;8.89;100.00
25759;BME280;13604;52.496;13.456;2023-03-20T01:51:44;101141.34;;;8.81;100.00
25759;BME280;13604;52.496;13.456;2023-03-20T01:54:19;101165.53;;;8.95;100.00
25759;BME280;13604;52.496;13.456;2023-03-20T01:57:09;101159.47;;;8.95;100.00
25759;BME280;13604;52.496;13.456;2023-03-20T01:59:47;101158.38;;;8.91;100.00
25759;BME280;13604;52.496;13.456;2023-03-20T02:02:17;101155.69;;;8.90;100.00
25759;BME280;13604;52.496;13.456;2023-03-20T02:04:45;101159.47;;;8.95;100.00
25759;BME280;13604;52.496;13.456;2023-03-20T02:07:15;101150.41;;;8.88;100.00
25759;BME280;13604;52.496;13.456;2023-03-20T02:09:42;101144.03;;;8.83;100.00
25759;BME280;13604;52.496;13.456;2023-03-20T02:12:08;101173.34;;;8.95;100.00
25759;BME280;13604;52.496;13.456;2023-03-20T02:14:34;101176.63;;;8.93;100.00
25759;BME280;13604;52.496;13.456;2023-03-20T02:17:01;101159.88;;;8.73;100.00
25759;BME280;13604;52.496;13.456;2023-03-20T02:19:45;101177.47;;;8.92;100.00
25759;BME280;13604;52.496;13.456;2023-03-20T02:37:03;101166.44;;;8.96;100.00
25759;BME280;13604;52.496;13.456;2023-03-20T02:42:36;101137.44;;;8.88;100.00
25759;BME280;13604;52.496;13.456;2023-03-20T02:47:55;101165.44;;;8.79;100.00
25759;BME280;13604;52.496;13.456;2023-03-20T02:53:18;101167.25;;;8.80;100.00
25759;BME280;13604;52.496;13.456;2023-03-20T02:56:10;101171.09;;;8.87;100.00
25759;BME280;13604;52.496;13.456;2023-03-20T02:58:43;101175.75;;;8.92;100.00
25759;BME280;13604;52.496;13.456;2023-03-20T03:01:17;101183.09;;;8.99;100.00
25759;BME280;13604;52.496;13.456;2023-03-20T03:03:56;101174.69;;;9.03;100.00
25759;BME280;13604;52.496;13.456;2023-03-20T03:06:25;101159.09;;;9.03;100.00
25759;BME280;13604;52.496;13.456;2023-03-20T03:09:03;101169.84;;;9.10;100.00
25759;BME280;13604;52.496;13.456;2023-03-20T03:11:32;101151.03;;;8.99;100.00
25759;BME280;13604;52.496;13.456;2023-03-20T03:13:59;101170.91;;;9.13;100.00
25759;BME280;13604;52.496;13.456;2023-03-20T03:16:28;101180.47;;;9.14;100.00
25759;BME280;13604;52.496;13.456;2023-03-20T03:19:07;101168.13;;;9.10;100.00
25759;BME280;13604;52.496;13.456;2023-03-20T03:21:35;101170.19;;;9.16;100.00
25759;BME280;13604;52.496;13.456;2023-03-20T03:24:02;101173.59;;;9.15;100.00
25759;BME280;13604;52.496;13.456;2023-03-20T03:26:33;101170.75;;;9.10;100.00
25759;BME280;13604;52.496;13.456;2023-03-20T03:29:04;101166.50;;;9.12;100.00
25759;BME280;13604;52.496;13.456;2023-03-20T03:31:31;101159.88;;;9.02;100.00
25759;BME280;13604;52.496;13.456;2023-03-20T03:33:58;101180.84;;;9.20;100.00
25759;BME280;13604;52.496;13.456;2023-03-20T03:39:05;101184.97;;;9.17;100.00
25759;BME280;13604;52.496;13.456;2023-03-20T03:41:39;101169.94;;;9.11;100.00
25759;BME280;13604;52.496;13.456;2023-03-20T03:44:25;101183.16;;;9.16;100.00
25759;BME280;13604;52.496;13.456;2023-03-20T03:47:02;101163.31;;;9.01;100.00
25759;BME280;13604;52.496;13.456;2023-03-20T03:49:33;101178.25;;;9.06;100.00
25759;BME280;13604;52.496;13.456;2023-03-20T03:52:07;101185.06;;;9.03;100.00
25759;BME280;13604;52.496;13.456;2023-03-20T03:54:39;101186.69;;;9.01;100.00
25759;BME280;13604;52.496;13.456;2023-03-20T03:57:08;101168.75;;;8.91;100.00
25759;BME280;13604;52.496;13.456;2023-03-20T03:59:36;101178.91;;;8.87;100.00
25759;BME280;13604;52.496;13.456;2023-03-20T04:02:04;101179.97;;;8.90;100.00
25759;BME280;13604;52.496;13.456;2023-03-20T04:04:31;101184.00;;;8.85;100.00
25759;BME280;13604;52.496;13.456;2023-03-20T04:06:56;101185.69;;;8.84;100.00
25759;BME280;13604;52.496;13.456;2023-03-20T04:09:22;101182.91;;;8.81;100.00
25759;BME280;13604;52.496;13.456;2023-03-20T04:11:50;101183.00;;;8.83;100.00
25759;BME280;13604;52.496;13.456;2023-03-20T04:14:15;101179.41;;;8.81;100.00
25759;BME280;13604;52.496;13.456;2023-03-20T04:16:41;101187.31;;;8.82;100.00
25759;BME280;13604;52.496;13.456;2023-03-20T04:19:06;101183.16;;;8.71;100.00
25759;BME280;13604;52.496;13.456;2023-03-20T04:21:31;101158.34;;;8.61;100.00
25759;BME280;13604;52.496;13.456;2023-03-20T04:23:57;101177.78;;;8.68;100.00
25759;BME280;13604;52.496;13.456;2023-03-20T04:26:22;101195.53;;;8.75;100.00
25759;BME280;13604;52.496;13.456;2023-03-20T04:28:48;101202.78;;;8.81;100.00
25759;BME280;13604;52.496;13.456;2023-03-20T04:31:13;101195.06;;;8.68;100.00
25759;BME280;13604;52.496;13.456;2023-03-20T04:33:38;101214.00;;;8.80;100.00
25759;BME280;13604;52.496;13.456;2023-03-20T04:36:04;101219.91;;;8.77;100.00
25759;BME280;13604;52.496;13.456;2023-03-20T04:38:30;101204.31;;;8.77;100.00
25759;BME280;13604;52.496;13.456;2023-03-20T04:40:55;101217.50;;;8.80;100.00
25759;BME280;13604;52.496;13.456;2023-03-20T04:43:20;101195.97;;;8.68;100.00
25759;BME280;13604;52.496;13.456;2023-03-20T04:45:46;101207.69;;;8.76;100.00
25759;BME280;13604;52.496;13.456;2023-03-20T04:48:11;101213.47;;;8.86;100.00
25759;BME280;13604;52.496;13.456;2023-03-20T04:50:36;101213.75;;;8.90;100.00
25759;BME280;13604;52.496;13.456;2023-03-20T04:53:02;101205.75;;;8.87;100.00
25759;BME280;13604;52.496;13.456;2023-03-20T04:55:27;101212.91;;;8.91;100.00
25759;BME280;13604;52.496;13.456;2023-03-20T04:57:52;101215.50;;;8.91;100.00
25759;BME280;13604;52.496;13.456;2023-03-20T05:00:18;101204.50;;;8.80;100.00
25759;BME280;13604;52.496;13.456;2023-03-20T05:02:43;101218.84;;;8.89;100.00
25759;BME280;13604;52.496;13.456;2023-03-20T05:05:09;101221.63;;;8.92;100.00
25759;BME280;13604;52.496;13.456;2023-03-20T05:07:35;101216.44;;;8.92;100.00
25759;BME280;13604;52.496;13.456;2023-03-20T05:10:01;101218.09;;;8.91;100.00
25759;BME280;13604;52.496;13.456;2023-03-20T05:12:26;101201.25;;;8.84;100.00
25759;BME280;13604;52.496;13.456;2023-03-20T05:14:52;101222.78;;;8.97;100.00
25759;BME280;13604;52.496;13.456;2023-03-20T05:17:19;101217.59;;;8.97;100.00
25759;BME280;13604;52.496;13.456;2023-03-20T05:19:45;101195.19;;;8.84;100.00
25759;BME280;13604;52.496;13.456;2023-03-20T05:22:11;101226.19;;;8.96;100.00
25759;BME280;13604;52.496;13.456;2023-03-20T05:24:36;101223.31;;;8.91;100.00
25759;BME280;13604;52.496;13.456;2023-03-20T05:27:02;101201.63;;;8.91;100.00
25759;BME280;13604;52.496;13.456;2023-03-20T05:29:27;101217.69;;;8.98;100.00
25759;BME280;13604;52.496;13.456;2023-03-20T05:31:52;101210.88;;;8.86;100.00
25759;BME280;13604;52.496;13.456;2023-03-20T05:34:19;101222.06;;;8.99;100.00
25759;BME280;13604;52.496;13.456;2023-03-20T05:36:45;101217.59;;;8.97;100.00
25759;BME280;13604;52.496;13.456;2023-03-20T05:39:10;101219.38;;;8.98;100.00
25759;BME280;13604;52.496;13.456;2023-03-20T05:41:35;101223.75;;;8.99;100.00
25759;BME280;13604;52.496;13.456;2023-03-20T05:44:01;101199.84;;;8.90;100.00
25759;BME280;13604;52.496;13.456;2023-03-20T05:46:26;101185.78;;;8.86;100.00
25759;BME280;13604;52.496;13.456;2023-03-20T05:48:51;101215.50;;;9.06;100.00
25759;BME280;13604;52.496;13.456;2023-03-20T05:51:17;101204.69;;;8.98;100.00
25759;BME280;13604;52.496;13.456;2023-03-20T05:53:42;101214.53;;;9.04;100.00
25759;BME280;13604;52.496;13.456;2023-03-20T05:56:07;101204.06;;;9.02;100.00
25759;BME280;13604;52.496;13.456;2023-03-20T05:58:33;101222.00;;;9.13;100.00
25759;BME280;13604;52.496;13.456;2023-03-20T06:00:59;101213.19;;;9.11;100.00
25759;BME280;13604;52.496;13.456;2023-03-20T06:03:24;101194.22;;;8.97;100.00
25759;BME280;13604;52.496;13.456;2023-03-20T06:05:49;101225.03;;;9.20;100.00
25759;BME280;13604;52.496;13.456;2023-03-20T06:08:15;101228.97;;;9.29;100.00
25759;BME280;13604;52.496;13.456;2023-03-20T06:10:40;101222.09;;;9.29;100.00
25759;BME280;13604;52.496;13.456;2023-03-20T06:13:06;101235.22;;;9.32;100.00
25759;BME280;13604;52.496;13.456;2023-03-20T06:15:32;101237.91;;;9.34;100.00
25759;BME280;13604;52.496;13.456;2023-03-20T06:17:57;101243.84;;;9.31;100.00
25759;BME280;13604;52.496;13.456;2023-03-20T06:20:23;101246.81;;;9.37;100.00
25759;BME280;13604;52.496;13.456;2023-03-20T06:22:48;101193.56;;;9.16;100.00
25759;BME280;13604;52.496;13.456;2023-03-20T06:25:13;101253.06;;;9.56;100.00
25759;BME280;13604;52.496;13.456;2023-03-20T06:27:39;101264.63;;;9.61;100.00
25759;BME280;13604;52.496;13.456;2023-03-20T06:30:05;101247.97;;;9.43;100.00
25759;BME280;13604;52.496;13.456;2023-03-20T06:32:30;101259.63;;;9.34;100.00
25759;BME280;13604;52.496;13.456;2023-03-20T06:34:56;101271.00;;;9.36;100.00
25759;BME280;13604;52.496;13.456;2023-03-20T06:37:21;101279.31;;;9.31;100.00
25759;BME280;13604;52.496;13.456;2023-03-20T06:39:49;101244.38;;;9.11;100.00
25759;BME280;13604;52.496;13.456;2023-03-20T06:42:15;101277.97;;;9.23;100.00
25759;BME280;13604;52.496;13.456;2023-03-20T06:44:41;101285.16;;;9.27;100.00
25759;BME280;13604;52.496;13.456;2023-03-20T06:47:07;101284.28;;;9.26;100.00
25759;BME280;13604;52.496;13.456;2023-03-20T06:49:32;101265.91;;;9.23;100.00
25759;BME280;13604;52.496;13.456;2023-03-20T06:51:57;101296.09;;;9.21;100.00
25759;BME280;13604;52.496;13.456;2023-03-20T06:54:23;101290.63;;;9.01;100.00
25759;BME280;13604;52.496;13.456;2023-03-20T06:56:49;101291.09;;;8.81;100.00
25759;BME280;13604;52.496;13.456;2023-03-20T06:59:14;101299.31;;;8.74;100.00
25759;BME280;13604;52.496;13.456;2023-03-20T07:01:39;101309.94;;;8.63;100.00
25759;BME280;13604;52.496;13.456;2023-03-20T07:04:04;101300.78;;;8.55;100.00
25759;BME280;13604;52.496;13.456;2023-03-20T07:06:30;101311.09;;;8.54;100.00
25759;BME280;13604;52.496;13.456;2023-03-20T07:08:56;101300.00;;;8.29;100.00
25759;BME280;13604;52.496;13.456;2023-03-20T07:11:21;101316.75;;;8.48;100.00
25759;BME280;13604;52.496;13.456;2023-03-20T07:13:47;101318.03;;;8.55;100.00
25759;BME280;13604;52.496;13.456;2023-03-20T07:16:12;101322.84;;;8.62;100.00
25759;BME280;13604;52.496;13.456;2023-03-20T07:18:37;101322.66;;;8.59;100.00
25759;BME280;13604;52.496;13.456;2023-03-20T07:21:05;101327.84;;;8.59;100.00
25759;BME280;13604;52.496;13.456;2023-03-20T07:23:32;101312.66;;;8.52;100.00
25759;BME280;13604;52.496;13.456;2023-03-20T07:25:58;101310.06;;;8.52;100.00
25759;BME280;13604;52.496;13.456;2023-03-20T07:28:23;101318.25;;;8.58;100.00
25759;BME280;13604;52.496;13.456;2023-03-20T07:30:49;101292.72;;;8.37;100.00
25759;BME280;13604;52.496;13.456;2023-03-20T07:33:14;101315.25;;;8.52;100.00
25759;BME280;13604;52.496;13.456;2023-03-20T07:35:39;101326.38;;;8.49;100.00
25759;BME280;13604;52.496;13.456;2023-03-20T07:38:05;101331.34;;;8.46;100.00
25759;BME280;13604;52.496;13.456;2023-03-20T07:40:31;101321.06;;;8.34;100.00
25759;BME280;13604;52.496;13.456;2023-03-20T07:42:56;101319.78;;;8.27;100.00
25759;BME280;13604;52.496;13.456;2023-03-20T07:45:22;101331.84;;;8.27;100.00
25759;BME280;13604;52.496;13.456;2023-03-20T07:47:47;101310.81;;;7.96;100.00
25759;BME280;13604;52.496;13.456;2023-03-20T07:50:13;101339.25;;;8.07;100.00
25759;BME280;13604;52.496;13.456;2023-03-20T07:52:38;101338.56;;;8.10;100.00
25759;BME280;13604;52.496;13.456;2023-03-20T07:55:04;101340.47;;;8.13;100.00
25759;BME280;13604;52.496;13.456;2023-03-20T07:57:30;101311.31;;;8.03;100.00
25759;BME280;13604;52.496;13.456;2023-03-20T07:59:55;101336.94;;;8.25;100.00
25759;BME280;13604;52.496;13.456;2023-03-20T08:02:20;101338.53;;;8.50;100.00
25759;BME280;13604;52.496;13.456;2023-03-20T08:04:46;101341.91;;;8.62;100.00
25759;BME280;13604;52.496;13.456;2023-03-20T08:07:11;101328.19;;;8.65;100.00
25759;BME280;13604;52.496;13.456;2023-03-20T08:09:37;101333.13;;;8.89;100.00
25759;BME280;13604;52.496;13.456;2023-03-20T08:12:03;101341.06;;;9.05;100.00
25759;BME280;13604;52.496;13.456;2023-03-20T08:14:28;101324.03;;;9.10;100.00
25759;BME280;13604;52.496;13.456;2023-03-20T08:16:53;101341.19;;;9.51;99.08
25759;BME280;13604;52.496;13.456;2023-03-20T08:19:19;101333.03;;;9.60;97.34
25759;BME280;13604;52.496;13.456;2023-03-20T08:21:44;101347.28;;;9.82;96.23
25759;BME280;13604;52.496;13.456;2023-03-20T08:24:09;101347.19;;;9.65;95.62
25759;BME280;13604;52.496;13.456;2023-03-20T08:26:35;101352.16;;;9.46;96.84
25759;BME280;13604;52.496;13.456;2023-03-20T08:29:00;101357.56;;;9.20;97.53
25759;BME280;13604;52.496;13.456;2023-03-20T08:31:25;101350.69;;;8.93;98.64
25759;BME280;13604;52.496;13.456;2023-03-20T08:33:51;101363.88;;;8.96;99.49
25759;BME280;13604;52.496;13.456;2023-03-20T08:36:16;101362.41;;;8.86;99.92
25759;BME280;13604;52.496;13.456;2023-03-20T08:38:44;101371.31;;;8.76;100.00
25759;BME280;13604;52.496;13.456;2023-03-20T08:41:10;101361.16;;;8.66;100.00
25759;BME280;13604;52.496;13.456;2023-03-20T08:43:35;101368.22;;;8.82;100.00
25759;BME280;13604;52.496;13.456;2023-03-20T08:46:00;101371.66;;;8.96;99.25
25759;BME280;13604;52.496;13.456;2023-03-20T08:48:26;101363.69;;;9.21;98.88
25759;BME280;13604;52.496;13.456;2023-03-20T08:50:51;101366.41;;;9.67;97.69
25759;BME280;13604;52.496;13.456;2023-03-20T08:53:18;101357.38;;;10.37;91.31
25759;BME280;13604;52.496;13.456;2023-03-20T08:55:47;101350.09;;;11.12;87.31
25759;BME280;13604;52.496;13.456;2023-03-20T08:58:13;101363.09;;;12.13;80.86
25759;BME280;13604;52.496;13.456;2023-03-20T09:00:38;101359.97;;;13.15;73.00
25759;BME280;13604;52.496;13.456;2023-03-20T09:03:04;101330.16;;;13.72;70.06
25759;BME280;13604;52.496;13.456;2023-03-20T09:05:29;101354.78;;;14.42;66.39
25759;BME280;13604;52.496;13.456;2023-03-20T09:07:54;101356.13;;;14.09;66.62
25759;BME280;13604;52.496;13.456;2023-03-20T09:10:20;101347.38;;;13.67;67.25
25759;BME280;13604;52.496;13.456;2023-03-20T09:12:45;101357.47;;;13.57;67.65
25759;BME280;13604;52.496;13.456;2023-03-20T09:15:11;101364.84;;;13.27;68.03
25759;BME280;13604;52.496;13.456;2023-03-20T09:17:36;101345.88;;;13.12;68.92
25759;BME280;13604;52.496;13.456;2023-03-20T09:20:01;101363.16;;;13.08;68.59
25759;BME280;13604;52.496;13.456;2023-03-20T09:22:27;101337.81;;;12.87;69.58
25759;BME280;13604;52.496;13.456;2023-03-20T09:24:52;101364.88;;;13.07;69.24
25759;BME280;13604;52.496;13.456;2023-03-20T09:27:17;101358.38;;;12.80;70.11
25759;BME280;13604;52.496;13.456;2023-03-20T09:29:43;101357.47;;;12.79;69.80
25759;BME280;13604;52.496;13.456;2023-03-20T09:32:10;101368.84;;;12.80;70.04
25759;BME280;13604;52.496;13.456;2023-03-20T09:34:36;101349.00;;;12.28;69.92
25759;BME280;13604;52.496;13.456;2023-03-20T09:37:01;101366.72;;;12.35;70.63
25759;BME280;13604;52.496;13.456;2023-03-20T09:39:28;101365.16;;;11.85;71.90
25759;BME280;13604;52.496;13.456;2023-03-20T09:41:53;101369.59;;;11.87;72.55
25759;BME280;13604;52.496;13.456;2023-03-20T09:44:43;101369.56;;;12.04;72.20
25759;BME280;13604;52.496;13.456;2023-03-20T09:47:32;101342.81;;;12.26;71.17
25759;BME280;13604;52.496;13.456;2023-03-20T09:52:42;101341.47;;;12.91;68.64
25759;BME280;13604;52.496;13.456;2023-03-20T09:55:13;101338.91;;;13.72;67.13
25759;BME280;13604;52.496;13.456;2023-03-20T09:57:42;101357.72;;;13.85;65.07
25759;BME280;13604;52.496;13.456;2023-03-20T10:00:16;101353.97;;;13.78;65.28
25759;BME280;13604;52.496;13.456;2023-03-20T10:03:01;101364.69;;;13.63;66.01
25759;BME280;13604;52.496;13.456;2023-03-20T10:05:28;101366.72;;;13.10;66.43
25759;BME280;13604;52.496;13.456;2023-03-20T10:07:57;101351.09;;;12.55;68.77
25759;BME280;13604;52.496;13.456;2023-03-20T10:10:31;101352.41;;;12.45;69.63
25759;BME280;13604;52.496;13.456;2023-03-20T10:13:11;101365.44;;;12.63;69.60
25759;BME280;13604;52.496;13.456;2023-03-20T10:15:48;101380.63;;;12.52;69.45
25759;BME280;13604;52.496;13.456;2023-03-20T10:18:25;101340.06;;;11.70;69.64
25759;BME280;13604;52.496;13.456;2023-03-20T10:21:05;101354.41;;;11.44;71.19
25759;BME280;13604;52.496;13.456;2023-03-20T10:23:58;101367.91;;;11.53;71.76
25759;BME280;13604;52.496;13.456;2023-03-20T10:26:27;101379.00;;;11.49;72.05
25759;BME280;13604;52.496;13.456;2023-03-20T10:28:58;101367.88;;;11.35;72.16
25759;BME280;13604;52.496;13.456;2023-03-20T10:31:43;101347.91;;;11.19;72.10
25759;BME280;13604;52.496;13.456;2023-03-20T10:37:02;101338.84;;;11.29;71.33
25759;BME280;13604;52.496;13.456;2023-03-20T10:40:00;101358.13;;;11.49;71.47
25759;BME280;13604;52.496;13.456;2023-03-20T10:42:31;101358.94;;;11.65;71.09
25759;BME280;13604;52.496;13.456;2023-03-20T10:45:03;101321.72;;;11.34;71.34
25759;BME280;13604;52.496;13.456;2023-03-20T10:47:34;101364.88;;;11.62;71.44
25759;BME280;13604;52.496;13.456;2023-03-20T10:50:04;101367.47;;;11.62;71.99
25759;BME280;13604;52.496;13.456;2023-03-20T10:52:34;101322.44;;;11.48;71.19
25759;BME280;13604;52.496;13.456;2023-03-20T10:55:07;101352.53;;;11.41;71.23
25759;BME280;13604;52.496;13.456;2023-03-20T10:57:38;101355.06;;;11.40;71.34
25759;BME280;13604;52.496;13.456;2023-03-20T11:00:17;101355.88;;;11.39;71.29
25759;BME280;13604;52.496;13.456;2023-03-20T11:02:43;101354.22;;;11.41;71.18
25759;BME280;13604;52.496;13.456;2023-03-20T11:05:27;101368.31;;;11.45;70.93
25759;BME280;13604;52.496;13.456;2023-03-20T11:08:11;101366.81;;;11.32;71.07
25759;BME280;13604;52.496;13.456;2023-03-20T11:10:39;101343.59;;;11.03;71.71
25759;BME280;13604;52.496;13.456;2023-03-20T11:13:29;101357.53;;;10.88;72.57
25759;BME280;13604;52.496;13.456;2023-03-20T11:15:55;101356.06;;;10.93;73.76
25759;BME280;13604;52.496;13.456;2023-03-20T11:18:25;101349.63;;;10.86;74.76
25759;BME280;13604;52.496;13.456;2023-03-20T11:20:55;101347.19;;;11.05;74.19
25759;BME280;13604;52.496;13.456;2023-03-20T11:23:26;101353.38;;;11.24;72.62
25759;BME280;13604;52.496;13.456;2023-03-20T11:26:00;101355.28;;;11.45;71.58
25759;BME280;13604;52.496;13.456;2023-03-20T11:33:38;101347.88;;;12.41;68.36
25759;BME280;13604;52.496;13.456;2023-03-20T11:36:25;101352.44;;;12.64;67.29
25759;BME280;13604;52.496;13.456;2023-03-20T11:39:10;101325.72;;;12.32;66.98
25759;BME280;13604;52.496;13.456;2023-03-20T11:41:46;101333.09;;;12.23;67.47
25759;BME280;13604;52.496;13.456;2023-03-20T11:49:26;101338.91;;;12.93;65.09
25759;BME280;13604;52.496;13.456;2023-03-20T11:52:20;101334.63;;;13.34;63.66
25759;BME280;13604;52.496;13.456;2023-03-20T11:54:49;101319.72;;;12.73;64.19
25759;BME280;13604;52.496;13.456;2023-03-20T11:57:31;101324.69;;;12.66;65.43
25759;BME280;13604;52.496;13.456;2023-03-20T12:00:01;101319.28;;;12.44;64.72
25759;BME280;13604;52.496;13.456;2023-03-20T12:02:26;101292.31;;;11.89;66.23
25759;BME280;13604;52.496;13.456;2023-03-20T12:04:51;101322.03;;;11.75;68.47
25759;BME280;13604;52.496;13.456;2023-03-20T12:07:30;101319.97;;;11.68;68.82
25759;BME280;13604;52.496;13.456;2023-03-20T12:10:06;101314.84;;;11.53;69.19
25759;BME280;13604;52.496;13.456;2023-03-20T12:12:42;101319.63;;;11.62;70.33
25759;BME280;13604;52.496;13.456;2023-03-20T12:17:48;101316.44;;;11.67;68.57
25759;BME280;13604;52.496;13.456;2023-03-20T12:20:27;101316.13;;;11.61;68.67
25759;BME280;13604;52.496;13.456;2023-03-20T12:23:10;101305.75;;;11.63;67.87
25759;BME280;13604;52.496;13.456;2023-03-20T12:25:41;101312.19;;;11.51;68.54
25759;BME280;13604;52.496;13.456;2023-03-20T12:31:43;101299.00;;;11.66;68.06
25759;BME280;13604;52.496;13.456;2023-03-20T12:34:17;101286.56;;;12.14;66.50
25759;BME280;13604;52.496;13.456;2023-03-20T12:36:47;101288.00;;;12.08;65.05
25759;BME280;13604;52.496;13.456;2023-03-20T12:39:15;101297.47;;;12.06;65.25
25759;BME280;13604;52.496;13.456;2023-03-20T12:44:38;101285.47;;;11.91;64.81
25759;BME280;13604;52.496;13.456;2023-03-20T12:47:13;101299.13;;;11.87;65.45
25759;BME280;13604;52.496;13.456;2023-03-20T12:50:07;101281.41;;;11.62;65.85
25759;BME280;13604;52.496;13.456;2023-03-20T12:52:46;101287.38;;;11.59;66.85
25759;BME280;13604;52.496;13.456;2023-03-20T12:55:37;101283.13;;;11.62;67.54
25759;BME280;13604;52.496;13.456;2023-03-20T12:58:17;101275.19;;;11.42;67.78
25759;BME280;13604;52.496;13.456;2023-03-20T13:01:07;101281.13;;;11.39;67.31
25759;BME280;13604;52.496;13.456;2023-03-20T13:03:56;101280.34;;;11.58;67.36
25759;BME280;13604;52.496;13.456;2023-03-20T13:07:01;101280.22;;;11.73;67.35
25759;BME280;13604;52.496;13.456;2023-03-20T13:14:58;101273.78;;;11.49;68.27
25759;BME280;13604;52.496;13.456;2023-03-20T13:17:46;101276.91;;;11.41;68.95
25759;BME280;13604;52.496;13.456;2023-03-20T13:20:28;101276.91;;;11.41;68.55
25759;BME280;13604;52.496;13.456;2023-03-20T13:26:07;101268.19;;;11.41;68.85
25759;BME280;13604;52.496;13.456;2023-03-20T13:28:48;101270.94;;;11.44;68.75
25759;BME280;13604;52.496;13.456;2023-03-20T13:32:02;101257.03;;;11.62;68.00
25759;BME280;13604;52.496;13.456;2023-03-20T13:37:24;101258.47;;;12.09;67.33
25759;BME280;13604;52.496;13.456;2023-03-20T13:42:21;101262.47;;;12.02;66.76
25759;BME280;13604;52.496;13.456;2023-03-20T13:44:48;101264.19;;;12.02;67.06
25759;BME280;13604;52.496;13.456;2023-03-20T13:47:21;101256.38;;;12.02;67.29
25759;BME280;13604;52.496;13.456;2023-03-20T13:51:08;101251.59;;;12.11;66.98
25759;BME280;13604;52.496;13.456;2023-03-20T13:53:12;101239.13;;;12.05;66.84
25759;BME280;13604;52.496;13.456;2023-03-20T13:55:52;101242.94;;;12.31;66.72
25759;BME280;13604;52.496;13.456;2023-03-20T13:58:44;101241.31;;;12.33;66.28
25759;BME280;13604;52.496;13.456;2023-03-20T14:01:23;101245.41;;;12.28;66.95